createdAt,value
2023-01-20T00:01:50.240Z,62.55
2023-01-20T00:04:54.379Z,62.04
2023-01-20T00:07:59.048Z,62.00
2023-01-20T00:11:11.949Z,62.21
2023-01-20T00:14:16.594Z,62.32
2023-01-20T00:17:21.446Z,62.13
2023-01-20T00:20:25.684Z,62.02
2023-01-20T00:23:29.443Z,62.46
2023-01-20T00:26:33.805Z,61.51
2023-01-20T00:29:37.636Z,61.67
2023-01-20T00:32:46.328Z,62.00
2023-01-20T00:35:50.352Z,61.25
2023-01-20T00:38:55.105Z,60.47
2023-01-20T00:41:58.834Z,60.27
2023-01-20T00:45:03.404Z,60.49
2023-01-20T00:48:07.555Z,59.33
2023-01-20T00:51:11.980Z,57.08
2023-01-20T00:54:15.706Z,57.42
2023-01-20T00:57:20.030Z,58.12
2023-01-20T01:00:24.082Z,58.58
2023-01-20T01:03:28.927Z,55.56
2023-01-20T01:06:32.962Z,57.55
2023-01-20T01:09:37.631Z,55.25
2023-01-20T01:12:41.383Z,55.21
2023-01-20T01:15:51.870Z,53.91
2023-01-20T01:18:56.538Z,55.40
2023-01-20T01:22:00.705Z,55.37
2023-01-20T01:25:04.501Z,53.33
2023-01-20T01:28:09.260Z,55.39
2023-01-20T01:31:13.039Z,53.04
2023-01-20T01:34:17.479Z,54.15
2023-01-20T01:37:21.216Z,52.07
2023-01-20T01:40:25.441Z,52.85
2023-01-20T01:43:33.673Z,50.21
2023-01-20T01:46:38.464Z,52.87
2023-01-20T01:49:42.184Z,52.07
2023-01-20T01:52:49.620Z,52.45
2023-01-20T01:56:00.151Z,49.75
2023-01-20T01:59:05.190Z,51.67
2023-01-20T02:02:12.263Z,49.99
2023-01-20T02:05:21.994Z,48.85
2023-01-20T02:08:44.394Z,51.51
2023-01-20T02:12:03.832Z,50.33
2023-01-20T02:15:08.358Z,51.82
2023-01-20T02:18:21.688Z,52.88
2023-01-20T02:22:06.549Z,49.62
2023-01-20T02:25:30.854Z,50.94
2023-01-20T02:29:05.876Z,51.11
2023-01-20T02:32:29.571Z,50.38
2023-01-20T02:35:54.586Z,49.90
2023-01-20T02:39:07.053Z,49.87
2023-01-20T02:42:10.693Z,47.99
2023-01-20T02:45:39.031Z,50.78
2023-01-20T02:48:52.739Z,50.49
2023-01-20T02:52:06.338Z,49.09
2023-01-20T02:55:14.843Z,51.98
2023-01-20T02:58:57.765Z,49.96
2023-01-20T03:02:07.382Z,51.62
2023-01-20T03:05:21.999Z,52.83
2023-01-20T03:08:30.971Z,51.83
2023-01-20T03:11:40.157Z,48.73
2023-01-20T03:14:44.109Z,52.09
2023-01-20T03:17:48.697Z,50.54
2023-01-20T03:20:52.921Z,49.80
2023-01-20T03:24:03.327Z,51.40
2023-01-20T03:27:07.803Z,50.87
2023-01-20T03:30:17.528Z,48.96
2023-01-20T03:33:21.349Z,49.23
2023-01-20T03:36:29.478Z,50.26
2023-01-20T03:39:34.700Z,48.66
2023-01-20T03:43:02.992Z,49.13
2023-01-20T03:46:25.181Z,50.15
2023-01-20T03:49:52.813Z,50.87
2023-01-20T03:53:08.030Z,48.76
2023-01-20T03:56:37.895Z,49.97
2023-01-20T03:59:45.099Z,48.86
2023-01-20T04:02:50.902Z,49.26
2023-01-20T04:05:56.673Z,46.40
2023-01-20T04:09:11.224Z,49.48
2023-01-20T04:12:15.404Z,48.62
2023-01-20T04:15:21.348Z,48.18
2023-01-20T04:18:25.593Z,48.41
2023-01-20T04:21:42.149Z,49.37
2023-01-20T04:24:51.645Z,48.45
2023-01-20T04:27:55.960Z,45.80
2023-01-20T04:30:59.849Z,48.91
2023-01-20T04:34:05.279Z,46.57
2023-01-20T04:37:09.025Z,46.45
2023-01-20T04:40:13.795Z,46.80
2023-01-20T04:43:19.141Z,47.14
2023-01-20T04:46:23.490Z,44.36
2023-01-20T04:49:27.312Z,47.60
2023-01-20T04:52:31.762Z,47.92
2023-01-20T04:55:35.550Z,46.00
2023-01-20T04:58:40.365Z,45.70
2023-01-20T05:01:44.202Z,47.73
2023-01-20T05:04:48.612Z,45.15
2023-01-20T05:07:56.148Z,45.87
2023-01-20T05:11:01.296Z,48.12
2023-01-20T05:14:05.300Z,47.12
2023-01-20T05:17:09.773Z,45.10
2023-01-20T05:20:15.352Z,46.05
2023-01-20T05:23:20.168Z,48.03
2023-01-20T05:26:24.967Z,45.43
2023-01-20T05:29:30.117Z,45.50
2023-01-20T05:32:34.019Z,44.99
2023-01-20T05:35:41.664Z,46.04
2023-01-20T05:38:48.518Z,47.98
2023-01-20T05:41:52.725Z,46.22
2023-01-20T05:44:56.475Z,45.07
2023-01-20T05:48:02.114Z,47.05
2023-01-20T05:51:05.628Z,46.03
2023-01-20T05:54:11.454Z,46.26
2023-01-20T05:57:18.921Z,43.69
2023-01-20T06:00:23.840Z,46.74
2023-01-20T06:03:27.583Z,45.80
2023-01-20T06:06:31.893Z,44.54
2023-01-20T06:09:35.743Z,45.04
2023-01-20T06:12:40.544Z,46.96
2023-01-20T06:15:44.486Z,44.33
2023-01-20T06:18:48.894Z,45.51
2023-01-20T06:21:54.204Z,44.72
2023-01-20T06:24:58.898Z,45.89
2023-01-20T06:28:02.740Z,46.02
2023-01-20T06:31:10.412Z,44.88
2023-01-20T06:34:14.919Z,44.84
2023-01-20T06:37:19.421Z,44.93
2023-01-20T06:40:23.392Z,46.36
2023-01-20T06:43:31.713Z,45.73
2023-01-20T06:46:35.827Z,45.86
2023-01-20T06:49:40.229Z,46.50
2023-01-20T06:52:44.079Z,46.51
2023-01-20T06:55:57.614Z,45.44
2023-01-20T06:59:01.446Z,46.51
2023-01-20T07:02:06.028Z,47.28
2023-01-20T07:05:11.371Z,46.83
2023-01-20T07:08:15.830Z,46.67
2023-01-20T07:11:19.995Z,48.00
2023-01-20T07:14:24.330Z,46.72
2023-01-20T07:17:28.347Z,46.63
2023-01-20T07:20:32.560Z,47.30
2023-01-20T07:23:36.292Z,46.30
2023-01-20T07:26:40.911Z,48.51
2023-01-20T07:29:45.371Z,47.47
2023-01-20T07:32:52.444Z,46.84
2023-01-20T07:35:56.391Z,47.44
2023-01-20T07:39:00.821Z,48.00
2023-01-20T07:42:04.720Z,48.59
2023-01-20T07:45:09.434Z,48.74
2023-01-20T07:48:13.226Z,49.05
2023-01-20T07:51:18.239Z,48.10
2023-01-20T07:54:22.030Z,48.22
2023-01-20T07:57:26.523Z,47.96
2023-01-20T08:00:30.194Z,48.35
2023-01-20T08:03:34.492Z,48.00
2023-01-20T08:06:38.395Z,48.50
2023-01-20T08:09:44.838Z,48.19
2023-01-20T08:12:48.582Z,48.65
2023-01-20T08:15:53.804Z,49.27
2023-01-20T08:18:57.556Z,49.08
2023-01-20T08:22:02.047Z,48.68
2023-01-20T08:25:06.086Z,48.72
2023-01-20T08:28:10.878Z,49.62
2023-01-20T08:31:18.065Z,49.59
2023-01-20T08:34:24.058Z,49.87
2023-01-20T08:37:27.940Z,49.68
2023-01-20T08:40:34.074Z,49.47
2023-01-20T08:43:38.356Z,48.90
2023-01-20T08:46:43.251Z,48.85
2023-01-20T08:49:47.043Z,48.70
2023-01-20T08:52:51.555Z,49.01
2023-01-20T08:55:59.898Z,49.58
2023-01-20T08:59:05.029Z,49.75
2023-01-20T09:02:12.818Z,49.89
2023-01-20T09:05:17.271Z,48.97
2023-01-20T09:08:21.737Z,48.35
2023-01-20T09:11:29.118Z,49.11
2023-01-20T09:14:33.167Z,48.69
2023-01-20T09:17:37.854Z,48.37
2023-01-20T09:20:41.780Z,48.09
2023-01-20T09:23:49.164Z,48.58
2023-01-20T09:26:53.606Z,48.58
2023-01-20T09:29:58.182Z,49.34
2023-01-20T09:33:03.063Z,49.26
2023-01-20T09:36:10.582Z,49.29
2023-01-20T09:39:33.440Z,49.06
2023-01-20T09:43:29.221Z,49.54
2023-01-20T09:47:10.773Z,49.02
2023-01-20T09:50:42.304Z,49.23
2023-01-20T09:54:00.043Z,50.04
2023-01-20T09:57:07.993Z,49.67
2023-01-20T10:00:22.526Z,49.25
2023-01-20T10:03:49.647Z,49.65
2023-01-20T10:07:08.723Z,50.01
2023-01-20T10:10:32.705Z,50.69
2023-01-20T10:13:47.964Z,50.06
2023-01-20T10:17:08.518Z,49.79
2023-01-20T10:20:21.031Z,49.61
2023-01-20T10:23:34.887Z,51.52
2023-01-20T10:26:58.421Z,51.24
2023-01-20T10:30:14.674Z,52.42
2023-01-20T10:33:42.480Z,52.95
2023-01-20T10:36:52.074Z,52.95
2023-01-20T10:40:04.700Z,53.15
2023-01-20T10:43:16.692Z,53.46
2023-01-20T10:46:34.139Z,53.85
2023-01-20T10:49:47.078Z,53.54
2023-01-20T10:52:51.883Z,54.46
2023-01-20T10:56:30.747Z,53.46
2023-01-20T10:59:44.188Z,53.79
2023-01-20T11:02:50.232Z,53.88
2023-01-20T11:05:54.961Z,53.71
2023-01-20T11:09:12.960Z,53.81
2023-01-20T11:12:24.898Z,54.01
2023-01-20T11:15:39.373Z,54.03
2023-01-20T11:18:44.786Z,54.30
2023-01-20T11:21:50.776Z,54.53
2023-01-20T11:24:57.431Z,54.33
2023-01-20T11:28:03.764Z,55.09
2023-01-20T11:31:07.986Z,54.32
2023-01-20T11:34:28.957Z,53.38
2023-01-20T11:37:39.588Z,52.27
2023-01-20T11:40:55.935Z,51.55
2023-01-20T11:44:01.726Z,52.12
2023-01-20T11:47:33.146Z,51.89
2023-01-20T11:50:55.029Z,52.15
2023-01-20T11:54:10.105Z,51.59
2023-01-20T11:57:18.578Z,51.31
2023-01-20T12:00:32.961Z,51.88
2023-01-20T12:04:21.021Z,52.13
2023-01-20T12:07:40.564Z,52.25
2023-01-20T12:10:47.202Z,52.21
2023-01-20T12:14:24.183Z,52.50
2023-01-20T12:17:43.409Z,52.98
2023-01-20T12:21:00.350Z,53.35
2023-01-20T12:24:52.450Z,53.26
2023-01-20T12:28:10.552Z,53.51
2023-01-20T12:31:20.773Z,54.38
2023-01-20T12:34:30.659Z,54.53
2023-01-20T12:37:58.468Z,53.87
2023-01-20T12:41:08.991Z,53.31
2023-01-20T12:44:36.159Z,53.04
2023-01-20T12:48:18.063Z,53.96
2023-01-20T12:51:30.230Z,53.21
2023-01-20T12:54:52.537Z,54.73
2023-01-20T12:58:13.640Z,54.05
2023-01-20T13:01:29.546Z,54.32
2023-01-20T13:04:55.436Z,54.75
2023-01-20T13:08:14.172Z,54.59
2023-01-20T13:12:00.312Z,54.21
2023-01-20T13:15:20.155Z,54.49
2023-01-20T13:18:58.265Z,54.10
2023-01-20T13:22:36.703Z,54.37
2023-01-20T13:25:42.208Z,53.32
2023-01-20T13:28:57.480Z,53.53
2023-01-20T13:32:01.787Z,53.16
2023-01-20T13:35:27.078Z,53.82
2023-01-20T13:38:33.917Z,54.23
2023-01-20T13:41:54.011Z,53.78
2023-01-20T13:45:13.729Z,53.08
2023-01-20T13:48:26.840Z,53.00
2023-01-20T13:51:39.819Z,53.89
2023-01-20T13:54:48.761Z,54.04
2023-01-20T13:57:52.832Z,54.24
2023-01-20T14:01:09.809Z,54.95
2023-01-20T14:04:19.737Z,53.58
2023-01-20T14:07:29.084Z,55.14
2023-01-20T14:10:33.432Z,54.68
2023-01-20T14:13:37.500Z,53.90
2023-01-20T14:16:44.299Z,53.47
2023-01-20T14:19:54.093Z,52.73
2023-01-20T14:23:24.858Z,52.74
2023-01-20T14:26:31.644Z,52.68
2023-01-20T14:29:36.206Z,52.96
2023-01-20T14:32:40.393Z,52.70
2023-01-20T14:35:45.495Z,52.54
2023-01-20T14:38:58.873Z,52.89
2023-01-20T14:42:03.284Z,53.24
2023-01-20T14:45:24.413Z,53.88
2023-01-20T14:48:34.823Z,53.36
2023-01-20T14:51:39.254Z,52.56
2023-01-20T14:54:46.490Z,52.84
2023-01-20T14:57:51.523Z,51.75
2023-01-20T15:01:00.999Z,52.09
2023-01-20T15:04:06.846Z,52.54
2023-01-20T15:07:20.501Z,51.67
2023-01-20T15:10:24.500Z,51.15
2023-01-20T15:13:31.836Z,51.73
2023-01-20T15:16:45.615Z,52.45
2023-01-20T15:19:49.897Z,53.04
2023-01-20T15:22:54.348Z,52.98
2023-01-20T15:26:09.237Z,53.44
2023-01-20T15:29:33.737Z,53.15
2023-01-20T15:32:37.686Z,52.56
2023-01-20T15:35:42.918Z,52.22
2023-01-20T15:38:47.214Z,51.54
2023-01-20T15:41:58.489Z,50.76
2023-01-20T15:45:02.261Z,51.17
2023-01-20T15:48:17.618Z,50.71
2023-01-20T15:51:21.631Z,52.65
2023-01-20T15:54:25.874Z,53.21
2023-01-20T15:57:31.627Z,52.82
2023-01-20T16:00:35.841Z,51.77
2023-01-20T16:03:39.610Z,51.36
2023-01-20T16:06:44.140Z,51.18
2023-01-20T16:09:48.335Z,52.43
2023-01-20T16:12:53.202Z,51.66
2023-01-20T16:15:57.979Z,51.18
2023-01-20T16:19:02.607Z,52.09
2023-01-20T16:22:07.736Z,51.54
2023-01-20T16:25:12.156Z,53.05
2023-01-20T16:28:20.508Z,55.83
2023-01-20T16:31:26.984Z,55.98
2023-01-20T16:34:31.093Z,54.96
2023-01-20T16:37:35.463Z,55.17
2023-01-20T16:40:50.383Z,53.37
2023-01-20T16:43:56.950Z,52.31
2023-01-20T16:47:00.990Z,51.78
2023-01-20T16:50:05.621Z,51.03
2023-01-20T16:53:08.989Z,51.72
2023-01-20T16:56:24.602Z,52.88
2023-01-20T16:59:28.412Z,51.85
2023-01-20T17:02:32.612Z,50.38
2023-01-20T17:05:36.555Z,50.77
2023-01-20T17:08:40.485Z,52.12
2023-01-20T17:11:43.949Z,51.87
2023-01-20T17:14:48.531Z,50.99
2023-01-20T17:17:52.851Z,51.05
2023-01-20T17:20:57.150Z,50.67
2023-01-20T17:24:01.938Z,51.81
2023-01-20T17:27:06.461Z,52.32
2023-01-20T17:30:10.285Z,51.46
2023-01-20T17:33:15.007Z,50.05
2023-01-20T17:36:19.170Z,50.92
2023-01-20T17:39:23.156Z,50.59
2023-01-20T17:42:26.557Z,50.75
2023-01-20T17:45:33.231Z,50.85
2023-01-20T17:48:36.635Z,50.43
2023-01-20T17:51:40.607Z,50.76
2023-01-20T17:54:44.055Z,51.01
2023-01-20T17:57:48.100Z,51.33
2023-01-20T18:00:51.525Z,51.05
2023-01-20T18:03:56.582Z,50.75
2023-01-20T18:07:00.415Z,50.86
2023-01-20T18:10:04.654Z,51.27
2023-01-20T18:13:08.049Z,50.97
2023-01-20T18:16:13.413Z,50.48
2023-01-20T18:19:16.936Z,49.76
2023-01-20T18:22:20.964Z,50.36
2023-01-20T18:25:24.464Z,51.28
2023-01-20T18:28:28.844Z,51.02
2023-01-20T18:31:35.542Z,49.39
2023-01-20T18:34:40.063Z,50.15
2023-01-20T18:37:43.832Z,50.63
2023-01-20T18:40:47.861Z,50.63
2023-01-20T18:43:52.045Z,49.84
2023-01-20T18:46:56.313Z,50.26
2023-01-20T18:49:59.712Z,50.24
2023-01-20T18:53:03.595Z,51.07
2023-01-20T18:56:09.313Z,50.71
2023-01-20T18:59:13.457Z,51.37
2023-01-20T19:02:16.939Z,51.80
2023-01-20T19:05:20.870Z,51.06
2023-01-20T19:08:25.522Z,52.20
2023-01-20T19:11:32.284Z,50.79
2023-01-20T19:14:35.700Z,49.44
2023-01-20T19:17:39.876Z,50.14
2023-01-20T19:20:43.206Z,50.61
2023-01-20T19:23:50.992Z,50.99
2023-01-20T19:26:54.757Z,50.12
2023-01-20T19:29:58.928Z,51.33
2023-01-20T19:33:02.706Z,51.61
2023-01-20T19:36:08.576Z,51.03
2023-01-20T19:39:12.452Z,50.69
2023-01-20T19:42:16.576Z,50.62
2023-01-20T19:45:19.967Z,50.38
2023-01-20T19:48:24.249Z,49.32
2023-01-20T19:51:28.012Z,49.23
2023-01-20T19:54:34.245Z,49.90
2023-01-20T19:57:38.095Z,49.18
2023-01-20T20:00:42.190Z,49.53
2023-01-20T20:03:45.920Z,49.31
2023-01-20T20:06:50.013Z,51.00
2023-01-20T20:09:53.708Z,50.46
2023-01-20T20:12:58.572Z,52.20
2023-01-20T20:16:02.592Z,51.56
2023-01-20T20:19:07.522Z,50.06
2023-01-20T20:22:10.894Z,49.59
2023-01-20T20:25:14.840Z,49.81
2023-01-20T20:28:18.485Z,49.78
2023-01-20T20:31:23.448Z,49.25
2023-01-20T20:34:26.890Z,49.69
2023-01-20T20:37:31.660Z,50.37
2023-01-20T20:40:35.909Z,50.12
2023-01-20T20:43:39.817Z,49.50
2023-01-20T20:46:44.253Z,49.53
2023-01-20T20:49:48.876Z,48.71
2023-01-20T20:52:52.367Z,49.31
2023-01-20T20:55:59.952Z,49.59
2023-01-20T20:59:03.955Z,50.29
2023-01-20T21:02:08.098Z,49.85
2023-01-20T21:05:11.529Z,50.03
2023-01-20T21:08:15.827Z,50.92
2023-01-20T21:11:20.901Z,50.74
2023-01-20T21:14:26.297Z,49.95
2023-01-20T21:17:30.082Z,50.10
2023-01-20T21:20:34.510Z,50.50
2023-01-20T21:23:38.027Z,50.47
2023-01-20T21:26:42.471Z,50.92
2023-01-20T21:29:47.178Z,50.48
2023-01-20T21:32:51.255Z,51.15
2023-01-20T21:35:54.632Z,51.17
2023-01-20T21:39:00.374Z,51.01
2023-01-20T21:42:06.673Z,51.34
2023-01-20T21:45:10.995Z,51.18
2023-01-20T21:48:33.094Z,50.51
2023-01-20T21:51:55.609Z,50.58
2023-01-20T21:54:59.102Z,49.38
2023-01-20T21:58:03.286Z,49.62
2023-01-20T22:01:06.859Z,49.80
2023-01-20T22:04:11.045Z,50.39
2023-01-20T22:07:15.964Z,50.87
2023-01-20T22:10:19.999Z,50.33
2023-01-20T22:13:23.397Z,49.66
2023-01-20T22:16:27.511Z,49.10
2023-01-20T22:19:30.965Z,48.26
2023-01-20T22:22:34.868Z,47.86
2023-01-20T22:25:38.807Z,48.32
2023-01-20T22:28:43.603Z,48.87
2023-01-20T22:39:21.347Z,48.77
2023-01-20T22:42:25.398Z,49.00
2023-01-20T22:45:29.231Z,49.88
2023-01-20T22:48:34.129Z,49.41
2023-01-20T22:51:37.787Z,50.98
2023-01-20T22:54:41.718Z,51.42
2023-01-20T22:57:45.681Z,51.54
2023-01-20T23:00:49.521Z,51.18
2023-01-20T23:03:57.319Z,50.04
2023-01-20T23:07:01.319Z,48.86
2023-01-20T23:10:05.557Z,49.48
2023-01-20T23:13:09.255Z,50.14
2023-01-20T23:16:15.502Z,50.50
2023-01-20T23:19:19.340Z,49.98
2023-01-20T23:22:23.366Z,49.73
2023-01-20T23:25:27.221Z,49.36
2023-01-20T23:28:31.118Z,48.81
2023-01-20T23:31:35.944Z,50.11
2023-01-20T23:38:11.322Z,49.70
2023-01-20T23:41:17.025Z,50.41
2023-01-20T23:44:21.278Z,53.04
2023-01-20T23:47:24.585Z,52.55
2023-01-20T23:50:28.214Z,51.36
2023-01-20T23:53:33.191Z,53.12
2023-01-20T23:56:37.155Z,54.99
2023-01-20T23:59:40.829Z,53.34
